Time;durP1;ratioP1;P1;durP2;ratioP2;P2;SDS_P1;SDS_P2;PMS_P1;PMS_P2;Temp;Humidity;BMP_temperature;BMP_pressure;BME280_temperature;BME280_humidity;BME280_pressure;Samples;Min_cycle;Max_cycle;Signal;HPM_P1;HPM_P2
2021/05/29 00:00:54;;;;;;;18.23;11.67;;;10.00;84.60;;;;;;5015572;28;20177;-88
2021/05/29 00:03:21;;;;;;;17.60;11.57;;;10.00;84.60;;;;;;5036363;28;20189;-88
2021/05/29 00:05:47;;;;;;;16.57;10.63;;;9.90;84.40;;;;;;5019612;28;20183;-88
2021/05/29 00:08:13;;;;;;;14.10;10.67;;;9.90;84.20;;;;;;5019621;28;20180;-89
2021/05/29 00:10:42;;;;;;;16.97;10.10;;;10.00;84.20;;;;;;5019668;28;20230;-88
2021/05/29 00:13:10;;;;;;;13.87;9.23;;;9.90;84.30;;;;;;5019456;28;20193;-90
2021/05/29 00:15:36;;;;;;;11.57;9.00;;;9.80;84.70;;;;;;5019511;28;20220;-89
2021/05/29 00:18:01;;;;;;;15.77;10.57;;;9.80;84.60;;;;;;5019966;28;20634;-89
2021/05/29 00:20:28;;;;;;;15.83;10.37;;;9.80;84.70;;;;;;5019408;28;20172;-89
2021/05/29 00:22:53;;;;;;;15.77;10.70;;;9.80;84.80;;;;;;5019524;28;20197;-89
2021/05/29 00:25:19;;;;;;;15.00;11.30;;;9.70;85.20;;;;;;5019172;28;20646;-88
2021/05/29 00:27:45;;;;;;;16.67;11.83;;;9.80;84.70;;;;;;5019804;28;20181;-89
2021/05/29 00:30:11;;;;;;;14.83;12.43;;;9.80;84.80;;;;;;5036904;28;20169;-89
2021/05/29 00:32:41;;;;;;;18.70;13.70;;;9.80;84.90;;;;;;5019022;28;20261;-88
2021/05/29 00:35:08;;;;;;;23.27;15.00;;;9.80;85.00;;;;;;5019073;28;20641;-88
2021/05/29 00:37:34;;;;;;;20.03;15.87;;;9.80;85.10;;;;;;5036724;28;20235;-89
2021/05/29 00:40:00;;;;;;;20.70;15.40;;;9.80;85.10;;;;;;5036699;28;20183;-89
2021/05/29 00:42:26;;;;;;;23.97;16.33;;;9.80;85.00;;;;;;5018773;28;20192;-88
2021/05/29 00:44:55;;;;;;;19.20;14.40;;;9.70;85.10;;;;;;5036882;28;20628;-88
2021/05/29 00:47:22;;;;;;;18.67;15.07;;;9.70;85.20;;;;;;5018859;28;20177;-88
2021/05/29 00:49:49;;;;;;;21.67;13.53;;;9.70;85.30;;;;;;5036832;28;20176;-88
2021/05/29 00:52:15;;;;;;;22.90;13.80;;;9.70;85.50;;;;;;5018701;28;20184;-88
2021/05/29 00:54:45;;;;;;;16.93;11.73;;;9.70;85.50;;;;;;5018653;28;20177;-88
2021/05/29 00:57:11;;;;;;;18.13;12.73;;;9.70;85.50;;;;;;5018628;28;20180;-87
2021/05/29 00:59:37;;;;;;;18.87;12.77;;;9.70;85.20;;;;;;5036621;28;20184;-87
2021/05/29 01:02:08;;;;;;;17.20;14.03;;;9.70;85.30;;;;;;5036252;28;20172;-87
2021/05/29 01:04:34;;;;;;;18.57;13.27;;;9.70;85.40;;;;;;5018772;28;20641;-88
2021/05/29 01:07:01;;;;;;;21.90;14.23;;;9.70;85.40;;;;;;5018700;28;20271;-88
2021/05/29 01:09:26;;;;;;;21.27;14.27;;;9.70;85.30;;;;;;5036236;28;20173;-88
2021/05/29 01:11:52;;;;;;;21.77;15.63;;;9.70;85.20;;;;;;5018926;28;20260;-87
2021/05/29 01:14:18;;;;;;;19.30;15.63;;;9.70;85.20;;;;;;5034902;28;20193;-88
2021/05/29 01:16:55;;;;;;;21.77;15.90;;;9.80;85.10;;;;;;5035883;28;20201;-87
2021/05/29 01:19:20;;;;;;;21.53;17.87;;;9.80;84.90;;;;;;5035947;28;20165;-87
2021/05/29 01:21:46;;;;;;;24.83;18.10;;;9.80;84.90;;;;;;5018194;28;20299;-87
2021/05/29 01:24:12;;;;;;;22.13;17.83;;;9.70;84.90;;;;;;5018070;28;20254;-87
2021/05/29 01:26:37;;;;;;;26.37;20.27;;;9.70;85.20;;;;;;5018136;28;20303;-87
2021/05/29 01:29:03;;;;;;;25.87;20.03;;;9.60;85.30;;;;;;5018131;28;20176;-88
2021/05/29 01:31:31;;;;;;;24.53;20.20;;;9.70;85.40;;;;;;5018019;28;20177;-87
2021/05/29 01:33:59;;;;;;;25.50;20.23;;;9.70;85.40;;;;;;5035687;28;20672;-88
2021/05/29 01:36:26;;;;;;;26.50;19.37;;;9.70;85.60;;;;;;5017835;28;20204;-88
2021/05/29 01:38:52;;;;;;;23.57;18.67;;;9.70;85.60;;;;;;5035649;28;20192;-87
2021/05/29 01:41:21;;;;;;;20.43;16.20;;;9.80;85.60;;;;;;5035543;28;20173;-87
2021/05/29 01:43:49;;;;;;;20.07;14.93;;;9.70;85.50;;;;;;5017647;28;20236;-87
2021/05/29 01:46:18;;;;;;;23.73;17.40;;;9.80;85.30;;;;;;5035481;28;20172;-87
2021/05/29 01:48:45;;;;;;;18.80;14.67;;;9.80;85.20;;;;;;5035409;28;20641;-88
2021/05/29 01:51:13;;;;;;;18.97;15.23;;;9.70;85.40;;;;;;5035392;28;20176;-88
2021/05/29 01:53:39;;;;;;;19.80;13.17;;;9.70;85.80;;;;;;5017531;28;20205;-87
2021/05/29 01:56:05;;;;;;;19.07;12.53;;;9.60;85.90;;;;;;5017603;28;20207;-87
2021/05/29 01:58:31;;;;;;;12.57;10.30;;;9.70;85.90;;;;;;5035557;28;20193;-88
2021/05/29 02:00:57;;;;;;;16.00;10.00;;;9.60;85.80;;;;;;5035174;28;20173;-88
2021/05/29 02:03:23;;;;;;;13.37;9.97;;;9.60;85.90;;;;;;5017467;28;20568;-87
2021/05/29 02:05:49;;;;;;;18.10;9.10;;;9.60;85.70;;;;;;5017706;28;20568;-87
2021/05/29 02:08:15;;;;;;;15.23;9.23;;;9.60;85.80;;;;;;5017306;28;20671;-88
2021/05/29 02:10:44;;;;;;;14.57;9.23;;;9.50;85.80;;;;;;5017291;28;20180;-87
2021/05/29 02:13:19;;;;;;;12.30;9.50;;;9.50;85.90;;;;;;5034906;28;20306;-87
2021/05/29 02:15:45;;;;;;;14.93;8.73;;;9.50;86.00;;;;;;5034936;28;20275;-87
2021/05/29 02:18:11;;;;;;;14.60;8.73;;;9.50;85.90;;;;;;5017280;28;20192;-86
2021/05/29 02:20:44;;;;;;;13.73;8.60;;;9.50;85.90;;;;;;5017263;28;20183;-86
2021/05/29 02:23:12;;;;;;;14.47;8.37;;;9.40;86.00;;;;;;5017217;28;20197;-87
2021/05/29 02:25:38;;;;;;;14.87;8.67;;;9.40;85.90;;;;;;5034749;28;20536;-87
2021/05/29 02:28:05;;;;;;;12.53;8.00;;;9.30;85.70;;;;;;5017134;28;20178;-87
2021/05/29 02:30:31;;;;;;;13.57;8.83;;;9.40;85.80;;;;;;5017854;28;20177;-87
2021/05/29 02:32:57;;;;;;;12.17;7.30;;;9.40;85.90;;;;;;5017275;28;20200;-87
2021/05/29 02:35:23;;;;;;;9.63;7.30;;;9.40;86.10;;;;;;5017040;28;20205;-87
2021/05/29 02:37:48;;;;;;;16.23;8.67;;;9.40;86.10;;;;;;5034715;28;20171;-87
2021/05/29 02:40:15;;;;;;;14.20;8.30;;;9.40;86.20;;;;;;5034532;28;20173;-86
2021/05/29 02:42:40;;;;;;;13.67;8.37;;;9.40;86.10;;;;;;5034297;28;20223;-87
2021/05/29 02:45:07;;;;;;;10.57;7.47;;;9.40;86.30;;;;;;5034414;28;20282;-87
2021/05/29 02:47:33;;;;;;;16.27;8.77;;;9.40;86.30;;;;;;5016561;28;20181;-87
2021/05/29 02:49:59;;;;;;;14.00;8.10;;;9.40;86.40;;;;;;5034488;28;20720;-87
2021/05/29 02:52:26;;;;;;;16.27;8.60;;;9.40;86.50;;;;;;5016821;28;20207;-87
2021/05/29 02:54:51;;;;;;;12.50;7.90;;;9.30;86.50;;;;;;5034238;28;20696;-86
2021/05/29 02:57:17;;;;;;;11.83;7.73;;;9.30;86.60;;;;;;5034240;28;20176;-87
2021/05/29 02:59:42;;;;;;;14.80;8.93;;;9.40;86.60;;;;;;5016453;28;20177;-87
2021/05/29 03:02:09;;;;;;;11.20;8.03;;;9.40;86.60;;;;;;5016727;28;20176;-88
2021/05/29 03:04:35;;;;;;;13.40;8.73;;;9.40;86.50;;;;;;5034112;28;20197;-87
2021/05/29 03:07:01;;;;;;;15.00;8.60;;;9.50;86.30;;;;;;5016509;28;20169;-86
2021/05/29 03:09:27;;;;;;;14.40;8.10;;;9.50;86.10;;;;;;5033944;28;20227;-87
2021/05/29 03:11:55;;;;;;;14.77;9.10;;;9.50;86.00;;;;;;5016435;28;20178;-86
2021/05/29 03:14:21;;;;;;;14.60;8.50;;;9.50;86.10;;;;;;5033859;28;20707;-87
2021/05/29 03:16:48;;;;;;;17.07;8.77;;;9.50;86.20;;;;;;5016007;28;20224;-87
2021/05/29 03:19:14;;;;;;;14.07;7.70;;;9.50;86.10;;;;;;5016302;28;20173;-87
2021/05/29 03:21:39;;;;;;;13.13;8.40;;;9.50;86.10;;;;;;5033731;28;20234;-87
2021/05/29 03:24:05;;;;;;;14.73;8.50;;;9.50;86.10;;;;;;5033749;28;20193;-87
2021/05/29 03:26:31;;;;;;;14.23;8.33;;;9.60;86.00;;;;;;5033726;28;20184;-87
2021/05/29 03:28:57;;;;;;;14.33;8.77;;;9.50;86.00;;;;;;5016144;28;20172;-87
2021/05/29 03:31:22;;;;;;;13.10;8.80;;;9.50;86.00;;;;;;5033626;28;20180;-87
2021/05/29 03:33:48;;;;;;;13.57;8.30;;;9.50;86.20;;;;;;5033844;28;20196;-87
2021/05/29 03:36:13;;;;;;;15.93;8.60;;;9.50;86.20;;;;;;5033253;28;20672;-87
2021/05/29 03:38:41;;;;;;;19.47;9.90;;;9.50;86.30;;;;;;5033504;28;20223;-87
2021/05/29 03:41:07;;;;;;;15.03;8.60;;;9.40;86.40;;;;;;5033564;28;20252;-87
2021/05/29 03:43:32;;;;;;;14.43;9.17;;;9.50;86.50;;;;;;5015779;28;20299;-87
2021/05/29 03:45:58;;;;;;;15.00;9.03;;;9.50;86.40;;;;;;5033589;28;20226;-86
2021/05/29 03:48:24;;;;;;;12.87;8.27;;;9.50;86.40;;;;;;5015902;28;20185;-87
2021/05/29 03:50:49;;;;;;;14.67;8.67;;;9.50;86.20;;;;;;5015729;28;20194;-87
2021/05/29 03:53:15;;;;;;;11.87;8.13;;;9.50;86.20;;;;;;5015717;28;20671;-87
2021/05/29 03:55:41;;;;;;;13.03;7.77;;;9.60;86.00;;;;;;5015726;28;20204;-87
2021/05/29 03:58:07;;;;;;;13.10;8.60;;;9.50;86.20;;;;;;5033754;28;20629;-86
2021/05/29 04:00:33;;;;;;;14.87;7.70;;;9.50;86.30;;;;;;5033358;28;20219;-87
2021/05/29 04:02:58;;;;;;;12.10;8.23;;;9.50;86.40;;;;;;5033204;28;20196;-87
2021/05/29 04:05:24;;;;;;;15.73;8.57;;;9.50;86.50;;;;;;5033254;28;20189;-87
2021/05/29 04:07:51;;;;;;;20.27;8.50;;;9.50;86.40;;;;;;5033275;28;20202;-87
2021/05/29 04:10:19;;;;;;;12.50;7.67;;;9.50;86.30;;;;;;5015624;28;20177;-87
2021/05/29 04:12:45;;;;;;;12.23;8.20;;;9.50;86.20;;;;;;5015447;28;20200;-87
2021/05/29 04:15:13;;;;;;;13.33;7.90;;;9.50;86.10;;;;;;5033055;28;20218;-87
2021/05/29 04:17:39;;;;;;;14.97;10.17;;;9.50;86.00;;;;;;5033178;28;20168;-87
2021/05/29 04:20:06;;;;;;;13.43;9.30;;;9.40;86.20;;;;;;5033228;28;20513;-86
2021/05/29 04:22:32;;;;;;;15.70;9.90;;;9.50;86.20;;;;;;5015487;28;20228;-87
2021/05/29 04:24:57;;;;;;;17.33;10.63;;;9.50;86.20;;;;;;5033182;28;20545;-87
2021/05/29 04:27:23;;;;;;;17.13;10.43;;;9.50;86.30;;;;;;5015424;28;20181;-87
2021/05/29 04:29:49;;;;;;;13.63;10.07;;;9.50;86.30;;;;;;5033362;28;20183;-87
2021/05/29 04:32:15;;;;;;;15.47;9.73;;;9.50;86.50;;;;;;5032950;28;20181;-87
2021/05/29 04:34:41;;;;;;;17.70;10.07;;;9.50;86.40;;;;;;5033090;28;20656;-86
2021/05/29 04:37:06;;;;;;;12.93;9.80;;;9.50;86.40;;;;;;5015399;28;20265;-87
2021/05/29 04:39:32;;;;;;;15.03;9.33;;;9.50;86.50;;;;;;5015302;28;20207;-87
2021/05/29 04:41:58;;;;;;;13.73;9.10;;;9.60;86.30;;;;;;5032915;28;20179;-87
2021/05/29 04:44:24;;;;;;;11.00;8.43;;;9.50;86.20;;;;;;5032738;28;20747;-87
2021/05/29 04:46:51;;;;;;;14.93;8.87;;;9.50;86.10;;;;;;5015418;28;20188;-87
2021/05/29 04:49:21;;;;;;;17.97;8.73;;;9.50;86.10;;;;;;5018038;28;20645;-87
2021/05/29 04:51:48;;;;;;;13.37;7.87;;;9.60;86.10;;;;;;5018971;28;20183;-86
2021/05/29 04:54:15;;;;;;;11.50;7.27;;;9.60;86.10;;;;;;5018832;28;20208;-87
2021/05/29 04:56:41;;;;;;;10.30;6.93;;;9.60;86.10;;;;;;5036487;28;20678;-87
2021/05/29 04:59:07;;;;;;;12.63;7.90;;;9.60;86.20;;;;;;5018862;28;20173;-87
2021/05/29 05:01:33;;;;;;;15.67;7.67;;;9.60;86.30;;;;;;5036554;28;20177;-87
2021/05/29 05:04:00;;;;;;;14.60;7.30;;;9.50;86.20;;;;;;5036201;28;20199;-87
2021/05/29 05:06:27;;;;;;;15.17;7.70;;;9.60;86.30;;;;;;5018801;28;20264;-87
2021/05/29 05:08:53;;;;;;;12.87;7.47;;;9.60;86.10;;;;;;5018562;28;20184;-87
2021/05/29 05:11:18;;;;;;;15.23;7.80;;;9.70;86.20;;;;;;5018554;28;20193;-87
2021/05/29 05:13:46;;;;;;;14.27;8.23;;;9.60;86.30;;;;;;5036147;28;20277;-87
2021/05/29 05:16:13;;;;;;;16.60;8.30;;;9.70;85.90;;;;;;5018496;28;20228;-87
2021/05/29 05:18:39;;;;;;;13.97;8.97;;;9.60;85.90;;;;;;5018485;28;20176;-87
2021/05/29 05:21:05;;;;;;;13.23;7.97;;;9.60;86.00;;;;;;5036582;28;20555;-87
2021/05/29 05:23:31;;;;;;;10.87;7.90;;;9.60;86.10;;;;;;5018530;28;20640;-87
2021/05/29 05:25:56;;;;;;;15.53;8.77;;;9.70;85.80;;;;;;5036101;28;20182;-87
2021/05/29 05:28:26;;;;;;;13.27;8.40;;;9.70;85.90;;;;;;5036028;28;20639;-86
2021/05/29 05:31:00;;;;;;;14.27;8.53;;;9.70;85.90;;;;;;5018208;28;20698;-87
2021/05/29 05:33:26;;;;;;;15.80;8.47;;;9.70;86.10;;;;;;5035839;28;20275;-87
2021/05/29 05:35:53;;;;;;;14.37;8.47;;;9.70;85.70;;;;;;5018440;28;20204;-87
2021/05/29 05:38:19;;;;;;;14.07;8.90;;;9.70;86.00;;;;;;5018118;28;20173;-87
2021/05/29 05:40:44;;;;;;;13.33;8.80;;;9.70;85.90;;;;;;5035664;28;20182;-87
2021/05/29 05:43:10;;;;;;;15.10;9.33;;;9.70;85.70;;;;;;5035613;28;20216;-87
2021/05/29 05:45:35;;;;;;;18.50;10.00;;;9.70;85.80;;;;;;5036025;28;20181;-87
2021/05/29 05:48:01;;;;;;;13.47;10.43;;;9.60;85.80;;;;;;5035763;28;20181;-87
2021/05/29 05:50:27;;;;;;;17.67;10.07;;;9.60;85.60;;;;;;5035940;28;20545;-87
2021/05/29 05:52:53;;;;;;;15.27;8.60;;;9.60;85.50;;;;;;5017982;28;20207;-87
2021/05/29 05:55:19;;;;;;;12.00;9.07;;;9.70;85.60;;;;;;5018606;28;20653;-86
2021/05/29 05:57:45;;;;;;;16.43;9.03;;;9.70;85.70;;;;;;5017847;28;20179;-87
2021/05/29 06:00:13;;;;;;;11.73;9.00;;;9.70;85.90;;;;;;5017547;28;20633;-87
2021/05/29 06:02:39;;;;;;;14.93;9.03;;;9.70;86.00;;;;;;5035288;28;20189;-87
2021/05/29 06:05:06;;;;;;;10.60;8.30;;;9.80;85.80;;;;;;5035267;28;20671;-88
2021/05/29 06:07:31;;;;;;;13.77;7.23;;;9.90;85.60;;;;;;5017528;28;20180;-87
2021/05/29 06:09:57;;;;;;;9.33;7.83;;;9.90;85.10;;;;;;5017563;28;20184;-87
2021/05/29 06:12:23;;;;;;;12.50;6.83;;;9.90;84.90;;;;;;5017387;28;20625;-87
2021/05/29 06:20:17;;;;;;;11.40;6.33;;;10.00;84.00;;;;;;5035803;28;20168;-87
2021/05/29 06:22:43;;;;;;;9.30;6.27;;;10.00;84.40;;;;;;5035163;28;20188;-88
2021/05/29 06:25:11;;;;;;;10.67;6.13;;;10.00;84.50;;;;;;5017490;28;20298;-87
2021/05/29 06:27:37;;;;;;;11.03;6.43;;;10.10;84.70;;;;;;5017722;28;20181;-88
2021/05/29 06:30:05;;;;;;;11.43;6.60;;;10.10;84.90;;;;;;5035125;28;20548;-87
2021/05/29 06:32:31;;;;;;;12.33;6.80;;;10.10;84.70;;;;;;5017194;28;20201;-88
2021/05/29 06:34:56;;;;;;;10.97;6.57;;;10.20;84.40;;;;;;5017546;28;20299;-87
2021/05/29 06:37:22;;;;;;;15.33;7.40;;;10.30;84.20;;;;;;5017623;28;20172;-87
2021/05/29 06:39:48;;;;;;;10.00;6.77;;;10.30;84.00;;;;;;5017042;28;20663;-87
2021/05/29 06:42:14;;;;;;;10.03;6.47;;;10.30;84.20;;;;;;5017060;28;20188;-88
2021/05/29 06:44:40;;;;;;;9.50;6.40;;;10.30;84.20;;;;;;5035469;28;20157;-87
2021/05/29 06:47:06;;;;;;;9.93;6.53;;;10.30;83.90;;;;;;5034924;28;20188;-87
2021/05/29 06:49:34;;;;;;;10.17;5.93;;;10.30;83.70;;;;;;5034726;28;20168;-87
2021/05/29 06:52:07;;;;;;;11.57;6.93;;;10.40;83.50;;;;;;5017043;28;20215;-87
2021/05/29 07:00:02;;;;;;;8.27;6.57;;;10.50;82.90;;;;;;5034345;28;20211;-87
2021/05/29 07:02:28;;;;;;;12.80;7.17;;;10.50;82.20;;;;;;5034494;28;20664;-88
2021/05/29 07:04:53;;;;;;;9.67;6.43;;;10.50;81.60;;;;;;5034326;28;20177;-87
2021/05/29 07:07:19;;;;;;;9.83;6.50;;;10.50;81.80;;;;;;5016851;28;20360;-87
2021/05/29 07:09:45;;;;;;;10.87;5.47;;;10.60;82.50;;;;;;5016841;28;20648;-87
2021/05/29 07:12:11;;;;;;;8.43;5.73;;;10.60;82.00;;;;;;5033498;28;20256;-88
2021/05/29 07:14:37;;;;;;;11.20;5.40;;;10.50;82.40;;;;;;5034291;28;20259;-88
2021/05/29 07:17:04;;;;;;;11.07;6.50;;;10.60;82.10;;;;;;5034772;28;20211;-88
2021/05/29 07:19:30;;;;;;;12.37;6.37;;;10.70;81.50;;;;;;5033999;28;20189;-87
2021/05/29 07:21:56;;;;;;;11.70;6.53;;;10.60;81.70;;;;;;5016468;28;20177;-87
2021/05/29 07:24:22;;;;;;;9.67;6.43;;;10.60;82.40;;;;;;5016628;28;20656;-87
2021/05/29 07:26:49;;;;;;;11.50;7.20;;;10.60;82.70;;;;;;5016376;28;20185;-88
2021/05/29 07:29:15;;;;;;;11.20;7.00;;;10.70;82.60;;;;;;5016330;28;20177;-88
2021/05/29 07:31:42;;;;;;;11.60;6.80;;;10.70;82.30;;;;;;5033871;28;20177;-87
2021/05/29 07:34:08;;;;;;;10.83;6.20;;;10.70;82.40;;;;;;5033800;28;20210;-87
2021/05/29 07:36:33;;;;;;;8.43;6.23;;;10.70;82.30;;;;;;5016296;28;20200;-87
2021/05/29 07:38:59;;;;;;;8.47;6.30;;;10.70;82.80;;;;;;5034127;28;20571;-87
2021/05/29 07:41:24;;;;;;;10.53;6.83;;;10.70;82.40;;;;;;5017012;28;20633;-87
2021/05/29 07:43:50;;;;;;;14.83;7.03;;;10.70;81.70;;;;;;5015980;28;20208;-87
2021/05/29 07:46:18;;;;;;;12.40;7.40;;;10.60;81.60;;;;;;5016212;28;20186;-87
2021/05/29 07:48:44;;;;;;;14.83;13.27;;;10.60;81.80;;;;;;5016087;28;20177;-87
2021/05/29 07:51:10;;;;;;;18.40;14.77;;;10.60;82.40;;;;;;5015998;28;20184;-87
2021/05/29 07:53:42;;;;;;;20.63;15.47;;;10.60;82.40;;;;;;5033366;28;20192;-87
2021/05/29 07:56:10;;;;;;;16.80;14.40;;;10.60;82.70;;;;;;5015641;28;20196;-87
2021/05/29 07:58:37;;;;;;;15.93;12.30;;;10.60;82.80;;;;;;5033763;28;20165;-87
2021/05/29 08:01:03;;;;;;;17.53;13.30;;;10.60;82.80;;;;;;5015858;28;20183;-87
2021/05/29 08:03:29;;;;;;;17.23;13.07;;;10.60;82.70;;;;;;5033321;28;20323;-87
2021/05/29 08:05:55;;;;;;;15.87;12.53;;;10.60;82.70;;;;;;5015884;28;20267;-87
2021/05/29 08:08:23;;;;;;;14.37;11.83;;;10.60;82.60;;;;;;5015515;28;20172;-86
2021/05/29 08:10:49;;;;;;;13.80;10.80;;;10.60;82.90;;;;;;5033141;28;20687;-87
2021/05/29 08:13:17;;;;;;;17.10;11.93;;;10.60;82.70;;;;;;5015416;28;20623;-87
2021/05/29 08:15:49;;;;;;;14.17;9.23;;;10.60;83.30;;;;;;5033070;28;20692;-87
2021/05/29 08:18:16;;;;;;;13.73;10.17;;;10.70;83.00;;;;;;5015363;28;20191;-87
2021/05/29 08:20:43;;;;;;;15.53;9.60;;;10.70;82.90;;;;;;5015309;28;20200;-86
2021/05/29 08:23:09;;;;;;;9.10;6.97;;;10.90;83.50;;;;;;5016372;28;20287;-87
2021/05/29 08:25:34;;;;;;;9.20;6.97;;;10.80;81.70;;;;;;5019252;28;20272;-86
2021/05/29 08:28:00;;;;;;;12.60;6.73;;;10.80;82.60;;;;;;5036870;28;20176;-86
2021/05/29 08:30:29;;;;;;;7.83;6.87;;;10.80;82.60;;;;;;5036903;28;20181;-86
2021/05/29 08:32:55;;;;;;;10.63;6.40;;;10.90;82.60;;;;;;5019480;28;20205;-86
2021/05/29 08:35:21;;;;;;;12.03;6.33;;;10.90;81.80;;;;;;5036760;28;20200;-86
2021/05/29 08:37:46;;;;;;;12.30;6.97;;;11.00;81.90;;;;;;5037023;28;20655;-86
2021/05/29 08:40:15;;;;;;;11.50;7.40;;;11.00;82.20;;;;;;5018990;28;20176;-86
2021/05/29 08:42:45;;;;;;;10.43;6.60;;;10.90;82.00;;;;;;5018797;28;20212;-87
2021/05/29 08:45:12;;;;;;;7.97;5.90;;;10.90;81.70;;;;;;5036693;28;20257;-86
2021/05/29 08:47:38;;;;;;;8.77;5.63;;;10.80;82.00;;;;;;5018810;28;20184;-87
2021/05/29 08:50:06;;;;;;;10.90;6.47;;;10.90;82.80;;;;;;5018925;28;20180;-86
2021/05/29 08:52:36;;;;;;;11.00;6.50;;;10.90;82.40;;;;;;5036385;28;20199;-87
2021/05/29 08:55:07;;;;;;;12.40;6.73;;;11.20;82.20;;;;;;5018837;28;20197;-87
2021/05/29 08:57:33;;;;;;;8.60;6.77;;;11.20;81.90;;;;;;5036510;28;20180;-86
2021/05/29 09:00:02;;;;;;;11.80;7.83;;;11.20;81.70;;;;;;5018683;28;20173;-86
2021/05/29 09:02:28;;;;;;;10.63;8.23;;;11.20;81.90;;;;;;5036252;28;20586;-87
2021/05/29 09:05:11;;;;;;;13.00;9.27;;;11.20;81.80;;;;;;5018534;28;20267;-86
2021/05/29 09:07:37;;;;;;;13.30;9.53;;;11.30;81.30;;;;;;5018444;28;20212;-86
2021/05/29 09:10:22;;;;;;;10.60;9.37;;;11.30;81.80;;;;;;5018802;28;20204;-87
2021/05/29 09:13:11;;;;;;;13.40;9.83;;;11.30;81.10;;;;;;5018356;28;20200;-87
2021/05/29 09:15:44;;;;;;;19.13;10.13;;;11.30;81.40;;;;;;5018495;28;20672;-87
2021/05/29 09:18:23;;;;;;;14.43;10.03;;;11.50;81.30;;;;;;5018481;28;20185;-87
2021/05/29 09:20:49;;;;;;;10.83;9.43;;;11.40;80.90;;;;;;5036204;28;20157;-87
2021/05/29 09:23:14;;;;;;;11.47;9.37;;;11.50;80.20;;;;;;5036531;28;20598;-87
2021/05/29 09:25:53;;;;;;;13.67;9.57;;;11.50;80.50;;;;;;5036112;28;20181;-87
2021/05/29 09:28:25;;;;;;;10.37;8.57;;;11.60;80.00;;;;;;5018466;28;20651;-86
2021/05/29 09:30:53;;;;;;;11.93;9.70;;;11.70;79.40;;;;;;5036074;28;20227;-87
2021/05/29 09:33:22;;;;;;;13.00;10.50;;;11.60;79.80;;;;;;5017942;28;20672;-87
2021/05/29 09:35:59;;;;;;;14.67;12.23;;;11.70;79.30;;;;;;5016961;28;20200;-86
2021/05/29 09:38:34;;;;;;;16.97;14.20;;;11.60;79.50;;;;;;5017872;28;20223;-86
2021/05/29 09:41:00;;;;;;;15.60;14.00;;;11.70;79.60;;;;;;5017982;28;20655;-87
2021/05/29 09:43:26;;;;;;;19.27;14.20;;;11.70;79.20;;;;;;5017622;28;20215;-87
2021/05/29 09:46:03;;;;;;;16.97;14.13;;;11.90;79.90;;;;;;5035659;28;20181;-87
2021/05/29 09:48:29;;;;;;;18.43;16.20;;;11.90;79.20;;;;;;5019050;28;20229;-87
2021/05/29 09:50:57;;;;;;;16.57;14.83;;;11.80;78.90;;;;;;5035539;28;20172;-87
2021/05/29 09:53:28;;;;;;;16.67;15.00;;;11.80;78.60;;;;;;5017615;28;20193;-87
2021/05/29 09:55:54;;;;;;;18.90;15.67;;;11.80;78.80;;;;;;5017653;28;20201;-87
2021/05/29 09:58:21;;;;;;;17.47;15.67;;;11.80;78.40;;;;;;5017554;28;20179;-86
2021/05/29 10:00:47;;;;;;;17.20;14.83;;;11.90;78.50;;;;;;5017654;28;20180;-87
2021/05/29 10:03:13;;;;;;;19.00;17.10;;;11.90;78.50;;;;;;5035277;28;20230;-87
2021/05/29 10:05:48;;;;;;;21.70;15.57;;;12.00;79.00;;;;;;5018312;28;20184;-87
2021/05/29 10:08:15;;;;;;;17.83;15.73;;;12.00;78.50;;;;;;5017582;28;20175;-87
2021/05/29 10:10:41;;;;;;;19.07;15.93;;;12.10;79.50;;;;;;5017353;28;20255;-86
2021/05/29 10:13:07;;;;;;;20.53;15.80;;;12.20;78.60;;;;;;5034929;28;20679;-87
2021/05/29 10:15:33;;;;;;;35.87;25.37;;;12.30;78.80;;;;;;5017312;28;20200;-87
2021/05/29 10:18:02;;;;;;;22.50;18.33;;;12.20;78.70;;;;;;5017349;28;20271;-87
2021/05/29 10:20:28;;;;;;;21.70;16.23;;;12.20;78.20;;;;;;5018222;28;20175;-87
2021/05/29 10:22:55;;;;;;;20.20;16.23;;;12.20;78.80;;;;;;5034733;28;20215;-87
2021/05/29 10:25:21;;;;;;;18.83;14.20;;;12.30;78.10;;;;;;5016915;28;20204;-87
2021/05/29 10:27:51;;;;;;;15.43;12.93;;;12.20;77.80;;;;;;5016863;28;20173;-87
2021/05/29 10:30:22;;;;;;;19.17;13.77;;;12.30;77.70;;;;;;5016825;28;20172;-87
2021/05/29 10:33:15;;;;;;;26.57;14.17;;;12.30;77.50;;;;;;5016740;28;20683;-87
2021/05/29 10:35:44;;;;;;;18.77;12.47;;;12.30;78.50;;;;;;5016635;28;20626;-87
2021/05/29 10:38:11;;;;;;;14.20;10.93;;;12.30;77.40;;;;;;5016610;28;20184;-86
2021/05/29 10:40:48;;;;;;;11.10;9.70;;;12.30;77.80;;;;;;5016548;28;20604;-86
2021/05/29 10:43:19;;;;;;;10.80;9.43;;;12.30;77.70;;;;;;5034133;28;20204;-86
2021/05/29 10:45:50;;;;;;;11.60;9.17;;;12.40;77.60;;;;;;5016542;28;20169;-86
2021/05/29 10:48:17;;;;;;;11.93;9.70;;;12.40;76.80;;;;;;5034312;28;20644;-86
2021/05/29 10:53:47;;;;;;;20.67;10.37;;;12.30;77.70;;;;;;5034457;28;20350;-86
2021/05/29 10:56:19;;;;;;;13.00;11.20;;;12.50;77.60;;;;;;5030096;28;20586;-86
2021/05/29 10:59:14;;;;;;;12.37;10.97;;;12.20;78.00;;;;;;5016415;28;20234;-86
2021/05/29 11:01:43;;;;;;;13.90;11.20;;;12.20;78.20;;;;;;5016214;28;20169;-86
2021/05/29 11:04:12;;;;;;;14.37;11.07;;;12.20;78.50;;;;;;5016034;28;20197;-86
2021/05/29 11:06:41;;;;;;;12.83;10.90;;;12.30;78.30;;;;;;5016068;28;20238;-86
2021/05/29 11:09:07;;;;;;;16.73;11.57;;;12.40;77.70;;;;;;5033735;28;20180;-86
2021/05/29 11:11:36;;;;;;;14.53;11.50;;;12.50;77.40;;;;;;5015951;28;20573;-86
2021/05/29 11:14:08;;;;;;;12.10;10.40;;;12.60;76.70;;;;;;5033832;28;20201;-86
2021/05/29 11:16:46;;;;;;;12.00;9.80;;;12.40;77.30;;;;;;5015732;28;20201;-86
2021/05/29 11:19:14;;;;;;;13.83;9.57;;;12.30;78.50;;;;;;5033597;28;20173;-87
2021/05/29 11:21:58;;;;;;;10.90;8.13;;;12.50;78.10;;;;;;5033571;28;20200;-87
2021/05/29 11:24:24;;;;;;;15.43;7.77;;;12.50;77.20;;;;;;5015641;28;20196;-86
2021/05/29 11:26:50;;;;;;;10.80;7.80;;;12.50;77.20;;;;;;5033723;28;20187;-86
2021/05/29 11:29:15;;;;;;;12.67;8.87;;;12.50;77.20;;;;;;5033519;28;20549;-86
2021/05/29 11:31:46;;;;;;;13.00;9.53;;;12.60;77.60;;;;;;5033595;28;20667;-87
2021/05/29 11:34:12;;;;;;;14.30;10.77;;;12.70;77.30;;;;;;5033549;28;20564;-87
2021/05/29 11:36:39;;;;;;;11.93;9.80;;;12.50;78.00;;;;;;5033727;28;20291;-87
2021/05/29 11:39:07;;;;;;;12.77;10.00;;;12.70;78.20;;;;;;5015831;28;20168;-87
2021/05/29 11:41:33;;;;;;;12.07;9.33;;;12.70;76.50;;;;;;5015914;28;20548;-87
2021/05/29 11:43:58;;;;;;;14.50;10.07;;;12.70;76.80;;;;;;5015564;28;20212;-86
2021/05/29 11:46:32;;;;;;;10.07;8.67;;;12.80;77.00;;;;;;5015630;28;20222;-87
2021/05/29 11:49:06;;;;;;;9.97;8.70;;;13.00;76.40;;;;;;5015930;28;20172;-87
2021/05/29 11:51:41;;;;;;;12.73;8.87;;;12.80;76.30;;;;;;5033585;28;20635;-87
2021/05/29 11:54:09;;;;;;;13.10;8.90;;;13.00;77.00;;;;;;5015606;28;20334;-86
2021/05/29 11:56:44;;;;;;;15.83;8.23;;;13.20;76.30;;;;;;5015391;28;20204;-86
2021/05/29 11:59:13;;;;;;;11.10;7.23;;;13.30;76.10;;;;;;5033032;28;20171;-86
2021/05/29 12:01:44;;;;;;;10.73;7.63;;;13.50;75.70;;;;;;5015417;28;20173;-86
2021/05/29 12:04:16;;;;;;;13.73;9.40;;;13.80;76.20;;;;;;5015467;28;20247;-86
2021/05/29 12:06:41;;;;;;;14.03;9.63;;;13.60;74.40;;;;;;5033098;28;20165;-86
2021/05/29 12:09:11;;;;;;;12.67;9.87;;;13.80;75.10;;;;;;5015557;28;20264;-87
2021/05/29 12:11:40;;;;;;;15.90;8.67;;;13.80;73.60;;;;;;5033369;28;20176;-87
2021/05/29 12:14:14;;;;;;;15.10;9.00;;;13.70;75.10;;;;;;5015327;28;20204;-87
2021/05/29 12:17:04;;;;;;;10.77;7.37;;;14.00;75.00;;;;;;5015254;28;20257;-86
2021/05/29 12:19:44;;;;;;;11.40;7.07;;;14.00;74.00;;;;;;5020728;28;20184;-86
2021/05/29 12:22:19;;;;;;;15.73;7.80;;;14.10;73.80;;;;;;5032842;28;20195;-86
2021/05/29 12:24:53;;;;;;;8.50;6.20;;;13.90;74.10;;;;;;5015255;28;20251;-86
2021/05/29 12:27:20;;;;;;;9.17;6.10;;;14.10;72.60;;;;;;5032802;28;20172;-86
2021/05/29 12:29:46;;;;;;;8.27;6.17;;;14.20;71.90;;;;;;5032743;28;20255;-86
2021/05/29 12:32:29;;;;;;;9.53;6.03;;;14.20;72.60;;;;;;5014939;28;20555;-86
2021/05/29 12:34:55;;;;;;;9.00;5.83;;;14.40;72.10;;;;;;5032613;28;20165;-86
2021/05/29 12:37:29;;;;;;;11.03;6.47;;;14.60;71.60;;;;;;5032716;28;20514;-86
2021/05/29 12:40:03;;;;;;;9.07;6.03;;;14.80;69.90;;;;;;5015034;28;20176;-86
2021/05/29 12:42:41;;;;;;;6.87;5.53;;;14.80;70.80;;;;;;5014710;28;20266;-86
2021/05/29 12:45:21;;;;;;;9.77;5.10;;;14.80;69.20;;;;;;5014704;28;20667;-86
2021/05/29 12:47:54;;;;;;;9.97;6.10;;;15.10;70.00;;;;;;5015028;28;20169;-86
2021/05/29 12:50:24;;;;;;;8.47;4.83;;;15.10;70.90;;;;;;5014775;28;20179;-86
2021/05/29 12:52:49;;;;;;;7.37;5.10;;;15.00;68.00;;;;;;5032455;28;20189;-86
2021/05/29 12:55:27;;;;;;;9.30;5.47;;;15.20;69.70;;;;;;5015128;28;20201;-86